createdAt,value
2023-04-10T00:05:06.529Z,9.00
2023-04-10T00:10:10.742Z,10.48
2023-04-10T00:15:16.847Z,9.48
2023-04-10T00:20:22.709Z,11.25
2023-04-10T00:25:27.181Z,11.18
2023-04-10T00:30:31.347Z,10.02
2023-04-10T00:35:37.649Z,10.10
2023-04-10T00:40:46.915Z,10.65
2023-04-10T00:45:50.856Z,10.85
2023-04-10T00:51:05.190Z,9.82
2023-04-10T00:56:10.351Z,9.90
2023-04-10T01:01:15.164Z,10.55
2023-04-10T01:06:23.650Z,11.32
2023-04-10T01:11:33.689Z,11.95
2023-04-10T01:16:43.933Z,15.13
2023-04-10T01:21:52.708Z,11.23
2023-04-10T01:27:13.616Z,10.77
2023-04-10T01:32:19.283Z,12.55
2023-04-10T01:37:29.038Z,12.60
2023-04-10T01:42:33.666Z,11.35
2023-04-10T01:47:39.784Z,15.52
2023-04-10T01:52:44.114Z,13.05
2023-04-10T01:57:58.887Z,14.48
2023-04-10T02:03:07.043Z,10.43
2023-04-10T02:08:13.994Z,12.07
2023-04-10T02:13:17.487Z,12.70
2023-04-10T02:18:26.259Z,11.27
2023-04-10T02:23:37.871Z,12.77
2023-04-10T02:28:42.452Z,9.45
2023-04-10T02:33:51.397Z,13.13
2023-04-10T02:38:58.245Z,12.98
2023-04-10T02:44:03.321Z,10.80
2023-04-10T02:49:11.180Z,12.55
2023-04-10T02:54:16.596Z,14.25
2023-04-10T02:59:23.620Z,14.80
2023-04-10T03:04:29.425Z,14.38
2023-04-10T03:09:38.318Z,12.57
2023-04-10T03:14:45.295Z,10.73
2023-04-10T03:19:59.787Z,12.45
2023-04-10T03:25:14.914Z,11.70
2023-04-10T03:30:22.150Z,12.05
2023-04-10T03:35:28.437Z,11.38
2023-04-10T03:40:34.712Z,12.80
2023-04-10T03:45:40.767Z,14.10
2023-04-10T03:50:55.310Z,13.60
2023-04-10T03:56:02.427Z,14.70
2023-04-10T04:01:13.055Z,16.45
2023-04-10T04:12:14.565Z,12.05
2023-04-10T04:17:50.695Z,13.77
2023-04-10T04:23:25.471Z,13.32
2023-04-10T04:28:48.297Z,12.45
2023-04-10T04:34:14.280Z,15.27
2023-04-10T04:39:38.330Z,16.45
2023-04-10T04:44:53.745Z,15.15
2023-04-10T04:50:18.088Z,14.43
2023-04-10T04:55:43.471Z,14.10
2023-04-10T05:01:06.366Z,12.35
2023-04-10T05:06:29.052Z,11.57
2023-04-10T05:12:09.337Z,11.73
2023-04-10T05:17:41.505Z,12.50
2023-04-10T05:23:14.981Z,10.38
2023-04-10T05:28:35.604Z,11.88
2023-04-10T05:33:57.441Z,11.50
2023-04-10T05:39:11.159Z,11.60
2023-04-10T05:49:40.153Z,10.30
2023-04-10T05:54:59.356Z,10.15
2023-04-10T06:00:26.513Z,12.05
2023-04-10T06:05:51.310Z,11.02
2023-04-10T06:10:58.680Z,11.30
2023-04-10T06:16:04.196Z,11.23
2023-04-10T06:21:12.914Z,10.55
2023-04-10T06:26:17.440Z,11.13
2023-04-10T06:31:25.855Z,11.95
2023-04-10T06:36:36.365Z,11.23
2023-04-10T06:41:51.295Z,11.35
2023-04-10T06:47:18.543Z,9.27
2023-04-10T06:52:31.054Z,11.98
2023-04-10T06:57:36.104Z,10.35
2023-04-10T07:02:43.716Z,10.63
2023-04-10T07:07:59.224Z,9.18
2023-04-10T07:13:12.340Z,9.15
2023-04-10T07:18:22.978Z,8.70
2023-04-10T07:23:55.014Z,10.18
2023-04-10T07:28:58.951Z,10.27
2023-04-10T07:34:17.023Z,10.32
2023-04-10T07:39:27.824Z,8.77
2023-04-10T07:44:40.552Z,8.45
2023-04-10T07:50:01.811Z,8.18
2023-04-10T07:55:06.098Z,8.90
2023-04-10T08:00:13.039Z,9.13
2023-04-10T08:05:26.655Z,8.75
2023-04-10T08:10:43.516Z,8.48
2023-04-10T08:15:52.329Z,7.90
2023-04-10T08:21:01.139Z,8.07
2023-04-10T08:26:12.064Z,6.70
2023-04-10T08:31:19.599Z,7.75
2023-04-10T08:36:30.860Z,6.05
2023-04-10T08:41:48.372Z,5.85
2023-04-10T08:46:55.122Z,6.57
2023-04-10T08:52:07.075Z,6.20
2023-04-10T08:57:24.057Z,6.25
2023-04-10T09:02:28.966Z,7.75
2023-04-10T09:07:47.776Z,6.72
2023-04-10T09:12:52.500Z,4.95
2023-04-10T09:17:58.847Z,6.00
2023-04-10T09:23:24.441Z,4.93
2023-04-10T09:28:49.899Z,5.20
2023-04-10T09:34:13.696Z,5.47
2023-04-10T09:39:22.083Z,5.25
2023-04-10T09:44:36.003Z,4.15
2023-04-10T09:49:46.583Z,5.32
2023-04-10T09:55:07.084Z,4.40
2023-04-10T10:00:21.354Z,3.55
2023-04-10T10:05:37.491Z,3.70
2023-04-10T10:10:50.275Z,3.75
2023-04-10T10:16:12.071Z,3.55
2023-04-10T10:21:20.983Z,4.07
2023-04-10T10:26:32.235Z,3.38
2023-04-10T10:31:39.177Z,4.38
2023-04-10T10:42:40.348Z,3.00
2023-04-10T10:48:10.471Z,3.13
2023-04-10T11:00:06.921Z,3.93
2023-04-10T11:11:41.233Z,4.13
2023-04-10T11:17:36.667Z,4.38
2023-04-10T11:23:53.110Z,4.25
2023-04-10T11:29:00.206Z,3.22
2023-04-10T11:34:10.792Z,4.57
2023-04-10T11:39:34.176Z,4.22
2023-04-10T11:44:57.993Z,3.00
2023-04-10T11:50:44.272Z,3.45
2023-04-10T12:02:13.830Z,3.28
2023-04-10T12:07:18.205Z,4.88
2023-04-10T12:12:40.642Z,4.18
2023-04-10T12:17:50.772Z,3.80
2023-04-10T12:23:02.766Z,3.15
2023-04-10T12:28:23.666Z,3.20
2023-04-10T12:33:40.948Z,3.08
2023-04-10T12:38:57.150Z,3.22
2023-04-10T12:44:29.650Z,3.55
2023-04-10T12:49:42.000Z,4.15
2023-04-10T12:54:50.089Z,4.10
2023-04-10T13:00:03.150Z,3.40
2023-04-10T13:05:32.974Z,2.83
2023-04-10T13:10:53.526Z,3.53
2023-04-10T13:22:08.495Z,3.17
2023-04-10T13:27:13.963Z,3.35
2023-04-10T13:32:31.701Z,3.90
2023-04-10T13:37:46.607Z,5.72
2023-04-10T13:43:09.706Z,5.00
2023-04-10T13:48:24.470Z,3.33
2023-04-10T13:53:45.029Z,3.30
2023-04-10T13:58:56.562Z,3.13
2023-04-10T14:04:06.838Z,3.13
2023-04-10T14:09:16.485Z,2.95
2023-04-10T14:14:39.801Z,3.35
2023-04-10T14:19:53.868Z,4.50
2023-04-10T14:25:12.890Z,2.63
2023-04-10T14:30:23.870Z,2.90
2023-04-10T14:36:22.103Z,2.70
2023-04-10T14:42:45.682Z,3.10
2023-04-10T14:48:15.381Z,3.58
2023-04-10T14:53:50.659Z,3.23
2023-04-10T14:59:01.927Z,4.50
2023-04-10T15:04:18.975Z,3.03
2023-04-10T15:09:56.634Z,3.30
2023-04-10T15:15:22.627Z,3.38
2023-04-10T15:20:33.055Z,3.17
2023-04-10T15:25:44.700Z,4.30
2023-04-10T15:30:52.328Z,3.10
2023-04-10T15:36:18.555Z,4.78
2023-04-10T15:41:48.521Z,2.88
2023-04-10T15:47:08.906Z,3.72
2023-04-10T15:52:21.684Z,4.55
2023-04-10T15:58:29.927Z,3.72
2023-04-10T16:03:43.005Z,3.05
2023-04-10T16:08:52.787Z,4.03
2023-04-10T16:14:04.140Z,3.10
2023-04-10T16:19:10.466Z,2.78
2023-04-10T16:24:26.425Z,3.20
2023-04-10T16:29:55.384Z,3.00
2023-04-10T16:35:03.856Z,4.87
2023-04-10T16:40:42.759Z,3.93
2023-04-10T16:45:57.796Z,5.28
2023-04-10T16:51:09.413Z,2.60
2023-04-10T16:56:32.563Z,3.50
2023-04-10T17:01:42.288Z,3.90
2023-04-10T17:06:50.774Z,3.58
2023-04-10T17:12:05.321Z,4.40
2023-04-10T17:17:29.749Z,3.78
2023-04-10T17:28:14.396Z,3.53
2023-04-10T17:33:50.358Z,3.42
2023-04-10T17:39:06.710Z,2.72
2023-04-10T17:49:46.590Z,2.63
2023-04-10T17:55:13.673Z,2.47
2023-04-10T18:00:30.862Z,3.22
2023-04-10T18:05:38.528Z,3.70
2023-04-10T18:11:04.806Z,3.28
2023-04-10T18:16:21.951Z,3.05
2023-04-10T18:21:37.326Z,5.68
2023-04-10T18:26:45.861Z,3.15
2023-04-10T18:31:59.836Z,4.73
2023-04-10T18:37:07.440Z,3.30
2023-04-10T18:42:13.861Z,3.40
2023-04-10T18:47:40.688Z,3.63
2023-04-10T18:53:14.216Z,3.65
2023-04-10T18:59:12.775Z,3.63
2023-04-10T19:04:25.857Z,5.25
2023-04-10T19:09:34.507Z,3.67
2023-04-10T19:14:50.346Z,4.60
2023-04-10T19:20:09.867Z,2.83
2023-04-10T19:25:24.538Z,3.38
2023-04-10T19:30:38.807Z,2.88
2023-04-10T19:36:01.839Z,2.83
2023-04-10T19:41:24.633Z,3.92
2023-04-10T19:46:34.533Z,3.53
2023-04-10T19:52:08.188Z,4.82
2023-04-10T19:57:23.192Z,4.28
2023-04-10T20:02:34.497Z,3.47
2023-04-10T20:07:46.990Z,2.85
2023-04-10T20:12:57.738Z,3.20
2023-04-10T20:18:01.721Z,2.55
2023-04-10T20:23:14.857Z,5.03
2023-04-10T20:28:20.189Z,3.53
2023-04-10T20:33:27.849Z,4.82
2023-04-10T20:38:38.365Z,4.18
2023-04-10T20:43:55.067Z,3.17
2023-04-10T20:49:06.603Z,4.65
2023-04-10T20:54:14.970Z,3.27
2023-04-10T20:59:26.257Z,3.47
2023-04-10T21:04:38.234Z,3.60
2023-04-10T21:09:44.007Z,2.80
2023-04-10T21:14:59.147Z,2.83
2023-04-10T21:20:14.222Z,5.25
2023-04-10T21:25:22.164Z,4.70
2023-04-10T21:30:26.732Z,3.22
2023-04-10T21:35:34.984Z,4.53
2023-04-10T21:40:45.136Z,2.95
2023-04-10T21:45:52.251Z,3.30
2023-04-10T21:51:17.892Z,1.50
2023-04-10T21:56:26.255Z,1.92
2023-04-10T22:01:39.308Z,2.67
2023-04-10T22:06:46.321Z,4.68
2023-04-10T22:11:52.974Z,2.45
2023-04-10T22:17:03.267Z,1.80
2023-04-10T22:22:13.841Z,3.10
2023-04-10T22:27:38.114Z,2.67
2023-04-10T22:32:46.049Z,4.78
2023-04-10T22:37:51.202Z,4.00
2023-04-10T22:43:13.110Z,2.65
2023-04-10T22:48:22.110Z,3.40
2023-04-10T22:53:33.031Z,2.83
2023-04-10T22:59:26.051Z,2.20
2023-04-10T23:04:44.102Z,3.90
2023-04-10T23:09:48.782Z,1.88
2023-04-10T23:15:13.169Z,1.83
2023-04-10T23:20:28.536Z,3.10
2023-04-10T23:25:50.933Z,5.15
2023-04-10T23:31:04.324Z,2.03
2023-04-10T23:36:33.449Z,3.13
2023-04-10T23:41:46.526Z,6.00
2023-04-10T23:47:14.811Z,2.83
2023-04-10T23:52:30.880Z,3.40
